sensor_id;sensor_type;location;lat;lon;timestamp;temperature;humidity
18581;DHT22;9420;50.876;7.012;2023-12-07T00:00:40;0.25;90.36
18581;DHT22;9420;50.876;7.012;2023-12-07T00:03:07;0.31;90.39
18581;DHT22;9420;50.876;7.012;2023-12-07T00:05:33;0.25;90.26
18581;DHT22;9420;50.876;7.012;2023-12-07T00:08:00;0.18;90.10
18581;DHT22;9420;50.876;7.012;2023-12-07T00:10:27;0.23;90.34
18581;DHT22;9420;50.876;7.012;2023-12-07T00:12:53;-0.11;90.26
18581;DHT22;9420;50.876;7.012;2023-12-07T00:15:20;-0.17;90.04
18581;DHT22;9420;50.876;7.012;2023-12-07T00:17:48;0.02;90.16
18581;DHT22;9420;50.876;7.012;2023-12-07T00:20:14;-0.01;90.08
18581;DHT22;9420;50.876;7.012;2023-12-07T00:22:41;0.18;90.53
18581;DHT22;9420;50.876;7.012;2023-12-07T00:28:12;0.10;90.42
18581;DHT22;9420;50.876;7.012;2023-12-07T00:30:39;-0.04;90.08
18581;DHT22;9420;50.876;7.012;2023-12-07T00:33:08;0.11;90.95
18581;DHT22;9420;50.876;7.012;2023-12-07T00:35:35;-0.03;90.80
18581;DHT22;9420;50.876;7.012;2023-12-07T00:38:02;0.04;90.58
18581;DHT22;9420;50.876;7.012;2023-12-07T00:40:28;-0.10;90.21
18581;DHT22;9420;50.876;7.012;2023-12-07T00:42:55;-0.11;90.22
18581;DHT22;9420;50.876;7.012;2023-12-07T00:45:22;-0.14;90.20
18581;DHT22;9420;50.876;7.012;2023-12-07T00:47:48;0.02;90.31
18581;DHT22;9420;50.876;7.012;2023-12-07T00:50:16;0.02;89.98
18581;DHT22;9420;50.876;7.012;2023-12-07T00:52:43;-0.17;89.87
18581;DHT22;9420;50.876;7.012;2023-12-07T00:55:10;-0.10;90.10
18581;DHT22;9420;50.876;7.012;2023-12-07T00:57:37;-0.18;90.39
18581;DHT22;9420;50.876;7.012;2023-12-07T01:00:05;-0.21;90.21
18581;DHT22;9420;50.876;7.012;2023-12-07T01:02:31;-0.22;90.12
18581;DHT22;9420;50.876;7.012;2023-12-07T01:04:58;-0.14;89.98
18581;DHT22;9420;50.876;7.012;2023-12-07T01:07:26;-0.22;89.85
18581;DHT22;9420;50.876;7.012;2023-12-07T01:09:54;-0.25;90.00
18581;DHT22;9420;50.876;7.012;2023-12-07T01:12:20;-0.29;89.99
18581;DHT22;9420;50.876;7.012;2023-12-07T01:14:47;-0.37;89.88
18581;DHT22;9420;50.876;7.012;2023-12-07T01:17:14;-0.31;89.94
18581;DHT22;9420;50.876;7.012;2023-12-07T01:19:40;-0.32;89.92
18581;DHT22;9420;50.876;7.012;2023-12-07T01:22:07;-0.32;89.90
18581;DHT22;9420;50.876;7.012;2023-12-07T01:24:35;-0.24;90.00
18581;DHT22;9420;50.876;7.012;2023-12-07T01:27:02;-0.18;89.96
18581;DHT22;9420;50.876;7.012;2023-12-07T01:29:28;-0.17;89.90
18581;DHT22;9420;50.876;7.012;2023-12-07T01:31:55;-0.18;89.90
18581;DHT22;9420;50.876;7.012;2023-12-07T01:34:22;-0.17;89.88
18581;DHT22;9420;50.876;7.012;2023-12-07T01:36:49;-0.08;89.90
18581;DHT22;9420;50.876;7.012;2023-12-07T01:39:15;-0.19;89.56
18581;DHT22;9420;50.876;7.012;2023-12-07T01:41:43;-0.21;89.74
18581;DHT22;9420;50.876;7.012;2023-12-07T01:44:10;-0.07;90.08
18581;DHT22;9420;50.876;7.012;2023-12-07T01:46:37;-0.21;89.84
18581;DHT22;9420;50.876;7.012;2023-12-07T01:49:03;-0.24;89.83
18581;DHT22;9420;50.876;7.012;2023-12-07T01:51:31;-0.25;89.56
18581;DHT22;9420;50.876;7.012;2023-12-07T01:53:57;-0.25;89.51
18581;DHT22;9420;50.876;7.012;2023-12-07T01:56:25;-0.08;89.77
18581;DHT22;9420;50.876;7.012;2023-12-07T01:58:54;-0.11;89.61
18581;DHT22;9420;50.876;7.012;2023-12-07T02:01:21;-0.15;89.64
18581;DHT22;9420;50.876;7.012;2023-12-07T02:03:47;-0.08;89.75
18581;DHT22;9420;50.876;7.012;2023-12-07T02:06:14;0.10;89.66
18581;DHT22;9420;50.876;7.012;2023-12-07T02:08:41;0.17;89.95
18581;DHT22;9420;50.876;7.012;2023-12-07T02:11:08;0.37;90.14
18581;DHT22;9420;50.876;7.012;2023-12-07T02:13:35;0.34;90.01
18581;DHT22;9420;50.876;7.012;2023-12-07T02:16:09;0.37;89.83
18581;DHT22;9420;50.876;7.012;2023-12-07T02:18:40;0.38;89.83
18581;DHT22;9420;50.876;7.012;2023-12-07T02:21:15;0.44;90.37
18581;DHT22;9420;50.876;7.012;2023-12-07T02:23:43;0.38;90.44
18581;DHT22;9420;50.876;7.012;2023-12-07T02:29:32;0.69;90.46
18581;DHT22;9420;50.876;7.012;2023-12-07T02:31:59;0.78;90.35
18581;DHT22;9420;50.876;7.012;2023-12-07T02:34:26;0.75;90.26
18581;DHT22;9420;50.876;7.012;2023-12-07T02:36:53;0.72;90.31
18581;DHT22;9420;50.876;7.012;2023-12-07T02:39:23;0.79;90.38
18581;DHT22;9420;50.876;7.012;2023-12-07T02:41:51;0.82;90.25
18581;DHT22;9420;50.876;7.012;2023-12-07T02:44:19;0.75;90.36
18581;DHT22;9420;50.876;7.012;2023-12-07T02:46:48;0.78;90.49
18581;DHT22;9420;50.876;7.012;2023-12-07T02:49:15;0.78;90.51
18581;DHT22;9420;50.876;7.012;2023-12-07T02:51:41;0.80;90.48
18581;DHT22;9420;50.876;7.012;2023-12-07T02:54:08;0.82;90.50
18581;DHT22;9420;50.876;7.012;2023-12-07T02:56:35;0.80;90.51
18581;DHT22;9420;50.876;7.012;2023-12-07T02:59:01;0.82;90.50
18581;DHT22;9420;50.876;7.012;2023-12-07T03:01:28;0.89;90.49
18581;DHT22;9420;50.876;7.012;2023-12-07T03:03:56;0.89;90.45
18581;DHT22;9420;50.876;7.012;2023-12-07T03:06:23;0.89;90.41
18581;DHT22;9420;50.876;7.012;2023-12-07T03:08:50;0.93;90.44
18581;DHT22;9420;50.876;7.012;2023-12-07T03:11:16;0.97;90.44
18581;DHT22;9420;50.876;7.012;2023-12-07T03:13:43;0.96;90.35
18581;DHT22;9420;50.876;7.012;2023-12-07T03:16:09;0.96;90.46
18581;DHT22;9420;50.876;7.012;2023-12-07T03:18:36;1.09;90.55
18581;DHT22;9420;50.876;7.012;2023-12-07T03:21:08;1.15;90.33
18581;DHT22;9420;50.876;7.012;2023-12-07T03:23:35;1.10;90.29
18581;DHT22;9420;50.876;7.012;2023-12-07T03:26:02;1.09;90.46
18581;DHT22;9420;50.876;7.012;2023-12-07T03:28:29;1.15;90.63
18581;DHT22;9420;50.876;7.012;2023-12-07T03:30:56;1.31;90.77
18581;DHT22;9420;50.876;7.012;2023-12-07T03:33:23;1.31;90.64
18581;DHT22;9420;50.876;7.012;2023-12-07T03:35:49;1.27;90.52
18581;DHT22;9420;50.876;7.012;2023-12-07T03:38:17;1.26;90.63
18581;DHT22;9420;50.876;7.012;2023-12-07T03:40:44;1.29;90.72
18581;DHT22;9420;50.876;7.012;2023-12-07T03:43:13;1.43;90.72
18581;DHT22;9420;50.876;7.012;2023-12-07T03:45:39;1.48;90.66
18581;DHT22;9420;50.876;7.012;2023-12-07T03:48:06;1.51;90.79
18581;DHT22;9420;50.876;7.012;2023-12-07T03:50:32;1.58;90.95
18581;DHT22;9420;50.876;7.012;2023-12-07T03:52:59;1.61;90.88
18581;DHT22;9420;50.876;7.012;2023-12-07T03:55:27;1.65;90.90
18581;DHT22;9420;50.876;7.012;2023-12-07T03:57:54;1.74;90.88
18581;DHT22;9420;50.876;7.012;2023-12-07T04:00:21;1.72;90.84
18581;DHT22;9420;50.876;7.012;2023-12-07T04:02:47;1.75;90.89
18581;DHT22;9420;50.876;7.012;2023-12-07T04:05:14;1.86;91.00
18581;DHT22;9420;50.876;7.012;2023-12-07T04:07:41;1.81;90.82
18581;DHT22;9420;50.876;7.012;2023-12-07T04:10:08;1.82;90.83
18581;DHT22;9420;50.876;7.012;2023-12-07T04:12:37;1.92;91.09
18581;DHT22;9420;50.876;7.012;2023-12-07T04:15:04;1.96;91.02
18581;DHT22;9420;50.876;7.012;2023-12-07T04:17:31;1.91;91.04
18581;DHT22;9420;50.876;7.012;2023-12-07T04:19:57;1.91;91.28
18581;DHT22;9420;50.876;7.012;2023-12-07T04:22:24;1.98;91.37
18581;DHT22;9420;50.876;7.012;2023-12-07T04:24:50;1.96;91.33
18581;DHT22;9420;50.876;7.012;2023-12-07T04:27:17;2.01;91.20
18581;DHT22;9420;50.876;7.012;2023-12-07T04:29:45;1.99;91.08
18581;DHT22;9420;50.876;7.012;2023-12-07T04:32:12;1.95;91.05
18581;DHT22;9420;50.876;7.012;2023-12-07T04:34:39;1.83;91.12
18581;DHT22;9420;50.876;7.012;2023-12-07T04:37:06;1.77;91.13
18581;DHT22;9420;50.876;7.012;2023-12-07T04:39:32;1.72;91.19
18581;DHT22;9420;50.876;7.012;2023-12-07T04:42:00;1.54;91.06
18581;DHT22;9420;50.876;7.012;2023-12-07T04:44:26;1.50;91.21
18581;DHT22;9420;50.876;7.012;2023-12-07T04:46:55;1.57;91.27
18581;DHT22;9420;50.876;7.012;2023-12-07T04:49:21;1.52;91.18
18581;DHT22;9420;50.876;7.012;2023-12-07T04:51:48;1.40;91.00
18581;DHT22;9420;50.876;7.012;2023-12-07T04:54:14;1.27;91.02
18581;DHT22;9420;50.876;7.012;2023-12-07T04:56:41;1.26;91.10
18581;DHT22;9420;50.876;7.012;2023-12-07T04:59:09;1.48;91.39
18581;DHT22;9420;50.876;7.012;2023-12-07T05:01:36;1.59;91.31
18581;DHT22;9420;50.876;7.012;2023-12-07T05:04:04;1.54;91.05
18581;DHT22;9420;50.876;7.012;2023-12-07T05:06:31;1.46;90.98
18581;DHT22;9420;50.876;7.012;2023-12-07T05:08:58;1.52;91.12
18581;DHT22;9420;50.876;7.012;2023-12-07T05:11:25;1.51;91.10
18581;DHT22;9420;50.876;7.012;2023-12-07T05:13:52;1.57;91.16
18581;DHT22;9420;50.876;7.012;2023-12-07T05:16:18;1.65;91.18
18581;DHT22;9420;50.876;7.012;2023-12-07T05:18:45;1.65;91.15
18581;DHT22;9420;50.876;7.012;2023-12-07T05:21:13;1.67;91.22
18581;DHT22;9420;50.876;7.012;2023-12-07T05:23:39;1.64;91.23
18581;DHT22;9420;50.876;7.012;2023-12-07T05:26:06;1.72;91.24
18581;DHT22;9420;50.876;7.012;2023-12-07T05:28:35;1.74;91.18
18581;DHT22;9420;50.876;7.012;2023-12-07T05:31:02;1.74;91.10
18581;DHT22;9420;50.876;7.012;2023-12-07T05:33:29;1.69;91.15
18581;DHT22;9420;50.876;7.012;2023-12-07T05:35:56;1.74;91.21
18581;DHT22;9420;50.876;7.012;2023-12-07T05:38:25;1.71;91.31
18581;DHT22;9420;50.876;7.012;2023-12-07T05:40:51;1.65;91.52
18581;DHT22;9420;50.876;7.012;2023-12-07T05:43:18;1.65;91.59
18581;DHT22;9420;50.876;7.012;2023-12-07T05:45:45;1.57;91.50
18581;DHT22;9420;50.876;7.012;2023-12-07T05:48:12;1.52;91.52
18581;DHT22;9420;50.876;7.012;2023-12-07T05:50:39;1.47;91.48
18581;DHT22;9420;50.876;7.012;2023-12-07T05:53:06;1.38;91.34
18581;DHT22;9420;50.876;7.012;2023-12-07T05:55:34;1.38;91.28
18581;DHT22;9420;50.876;7.012;2023-12-07T05:58:00;1.40;91.24
18581;DHT22;9420;50.876;7.012;2023-12-07T06:00:27;1.34;91.15
18581;DHT22;9420;50.876;7.012;2023-12-07T06:02:54;1.37;91.19
18581;DHT22;9420;50.876;7.012;2023-12-07T06:05:20;1.33;91.31
18581;DHT22;9420;50.876;7.012;2023-12-07T06:07:47;1.27;91.41
18581;DHT22;9420;50.876;7.012;2023-12-07T06:10:14;1.15;91.52
18581;DHT22;9420;50.876;7.012;2023-12-07T06:12:42;1.16;91.47
18581;DHT22;9420;50.876;7.012;2023-12-07T06:15:09;1.06;91.53
18581;DHT22;9420;50.876;7.012;2023-12-07T06:17:36;1.06;91.44
18581;DHT22;9420;50.876;7.012;2023-12-07T06:20:03;1.01;91.45
18581;DHT22;9420;50.876;7.012;2023-12-07T06:22:30;0.99;91.45
18581;DHT22;9420;50.876;7.012;2023-12-07T06:24:56;0.97;91.51
18581;DHT22;9420;50.876;7.012;2023-12-07T06:27:23;0.92;91.51
18581;DHT22;9420;50.876;7.012;2023-12-07T06:29:52;0.83;91.53
18581;DHT22;9420;50.876;7.012;2023-12-07T06:32:19;0.85;91.42
18581;DHT22;9420;50.876;7.012;2023-12-07T06:34:46;0.85;91.46
18581;DHT22;9420;50.876;7.012;2023-12-07T06:37:12;0.75;91.52
18581;DHT22;9420;50.876;7.012;2023-12-07T06:39:39;0.75;91.56
18581;DHT22;9420;50.876;7.012;2023-12-07T06:42:06;0.76;91.39
18581;DHT22;9420;50.876;7.012;2023-12-07T06:44:33;0.82;91.26
18581;DHT22;9420;50.876;7.012;2023-12-07T06:47:01;0.75;91.22
18581;DHT22;9420;50.876;7.012;2023-12-07T06:49:30;0.68;91.36
18581;DHT22;9420;50.876;7.012;2023-12-07T06:51:56;0.64;91.25
18581;DHT22;9420;50.876;7.012;2023-12-07T06:54:23;0.64;91.27
18581;DHT22;9420;50.876;7.012;2023-12-07T06:56:50;0.65;91.57
18581;DHT22;9420;50.876;7.012;2023-12-07T06:59:17;0.59;91.61
18581;DHT22;9420;50.876;7.012;2023-12-07T07:01:44;0.51;91.44
18581;DHT22;9420;50.876;7.012;2023-12-07T07:04:12;0.50;91.45
18581;DHT22;9420;50.876;7.012;2023-12-07T07:06:39;0.48;91.44
18581;DHT22;9420;50.876;7.012;2023-12-07T07:09:06;0.45;91.40
18581;DHT22;9420;50.876;7.012;2023-12-07T07:11:33;0.48;91.40
18581;DHT22;9420;50.876;7.012;2023-12-07T07:13:59;0.47;91.58
18581;DHT22;9420;50.876;7.012;2023-12-07T07:16:26;0.44;91.52
18581;DHT22;9420;50.876;7.012;2023-12-07T07:18:53;0.41;91.60
18581;DHT22;9420;50.876;7.012;2023-12-07T07:21:21;0.47;91.56
18581;DHT22;9420;50.876;7.012;2023-12-07T07:23:48;0.40;91.40
18581;DHT22;9420;50.876;7.012;2023-12-07T07:26:15;0.42;91.51
18581;DHT22;9420;50.876;7.012;2023-12-07T07:28:42;0.41;91.53
18581;DHT22;9420;50.876;7.012;2023-12-07T07:31:09;0.38;91.43
18581;DHT22;9420;50.876;7.012;2023-12-07T07:33:35;0.34;91.45
18581;DHT22;9420;50.876;7.012;2023-12-07T07:36:02;0.36;91.38
18581;DHT22;9420;50.876;7.012;2023-12-07T07:38:31;0.36;91.44
18581;DHT22;9420;50.876;7.012;2023-12-07T07:40:57;0.27;91.44
18581;DHT22;9420;50.876;7.012;2023-12-07T07:43:24;0.28;91.45
18581;DHT22;9420;50.876;7.012;2023-12-07T07:45:50;0.38;91.43
18581;DHT22;9420;50.876;7.012;2023-12-07T07:48:17;0.41;91.46
18581;DHT22;9420;50.876;7.012;2023-12-07T07:50:44;0.45;91.44
18581;DHT22;9420;50.876;7.012;2023-12-07T07:53:10;0.40;91.43
18581;DHT22;9420;50.876;7.012;2023-12-07T07:55:38;0.42;91.47
18581;DHT22;9420;50.876;7.012;2023-12-07T07:58:05;0.47;91.33
18581;DHT22;9420;50.876;7.012;2023-12-07T08:00:31;0.52;91.21
18581;DHT22;9420;50.876;7.012;2023-12-07T08:02:59;0.65;91.06
18581;DHT22;9420;50.876;7.012;2023-12-07T08:05:29;0.76;90.68
18581;DHT22;9420;50.876;7.012;2023-12-07T08:07:55;0.85;90.22
18581;DHT22;9420;50.876;7.012;2023-12-07T08:10:22;0.92;90.11
18581;DHT22;9420;50.876;7.012;2023-12-07T08:12:50;0.85;90.08
18581;DHT22;9420;50.876;7.012;2023-12-07T08:15:17;0.80;90.33
18581;DHT22;9420;50.876;7.012;2023-12-07T08:17:43;0.75;90.53
18581;DHT22;9420;50.876;7.012;2023-12-07T08:20:11;0.80;90.78
18581;DHT22;9420;50.876;7.012;2023-12-07T08:22:38;0.89;90.50
18581;DHT22;9420;50.876;7.012;2023-12-07T08:25:07;0.82;90.64
18581;DHT22;9420;50.876;7.012;2023-12-07T08:27:36;0.88;90.60
18581;DHT22;9420;50.876;7.012;2023-12-07T08:30:06;0.92;90.43
18581;DHT22;9420;50.876;7.012;2023-12-07T08:32:34;0.95;90.33
18581;DHT22;9420;50.876;7.012;2023-12-07T08:35:01;0.90;90.57
18581;DHT22;9420;50.876;7.012;2023-12-07T08:37:27;0.93;90.67
18581;DHT22;9420;50.876;7.012;2023-12-07T08:39:54;0.92;90.63
18581;DHT22;9420;50.876;7.012;2023-12-07T08:42:20;0.97;90.56
18581;DHT22;9420;50.876;7.012;2023-12-07T08:44:47;1.03;90.43
18581;DHT22;9420;50.876;7.012;2023-12-07T08:47:15;1.13;90.04
18581;DHT22;9420;50.876;7.012;2023-12-07T08:49:42;1.13;90.07
18581;DHT22;9420;50.876;7.012;2023-12-07T08:52:09;1.12;90.24
18581;DHT22;9420;50.876;7.012;2023-12-07T08:54:35;1.22;90.01
18581;DHT22;9420;50.876;7.012;2023-12-07T08:57:02;1.27;89.69
18581;DHT22;9420;50.876;7.012;2023-12-07T08:59:29;1.29;89.82
18581;DHT22;9420;50.876;7.012;2023-12-07T09:01:56;1.31;89.68
18581;DHT22;9420;50.876;7.012;2023-12-07T09:04:25;1.37;89.58
18581;DHT22;9420;50.876;7.012;2023-12-07T09:06:51;1.37;89.62
18581;DHT22;9420;50.876;7.012;2023-12-07T09:09:19;1.36;89.50
18581;DHT22;9420;50.876;7.012;2023-12-07T09:11:45;1.46;89.47
18581;DHT22;9420;50.876;7.012;2023-12-07T09:14:12;1.50;89.39
18581;DHT22;9420;50.876;7.012;2023-12-07T09:16:43;1.50;89.15
18581;DHT22;9420;50.876;7.012;2023-12-07T09:19:10;1.54;89.19
18581;DHT22;9420;50.876;7.012;2023-12-07T09:21:39;1.54;89.25
18581;DHT22;9420;50.876;7.012;2023-12-07T09:24:06;1.55;89.33
18581;DHT22;9420;50.876;7.012;2023-12-07T09:26:33;1.57;89.13
18581;DHT22;9420;50.876;7.012;2023-12-07T09:28:59;1.61;89.15
18581;DHT22;9420;50.876;7.012;2023-12-07T09:31:26;1.64;88.78
18581;DHT22;9420;50.876;7.012;2023-12-07T09:33:53;1.68;88.63
18581;DHT22;9420;50.876;7.012;2023-12-07T09:36:20;1.72;88.86
18581;DHT22;9420;50.876;7.012;2023-12-07T09:38:48;1.75;88.63
18581;DHT22;9420;50.876;7.012;2023-12-07T09:41:15;1.75;88.50
18581;DHT22;9420;50.876;7.012;2023-12-07T09:43:42;1.79;88.92
18581;DHT22;9420;50.876;7.012;2023-12-07T09:46:08;1.82;88.46
18581;DHT22;9420;50.876;7.012;2023-12-07T09:48:36;1.91;88.60
18581;DHT22;9420;50.876;7.012;2023-12-07T09:51:04;1.94;88.36
18581;DHT22;9420;50.876;7.012;2023-12-07T09:53:33;1.95;87.77
18581;DHT22;9420;50.876;7.012;2023-12-07T09:56:02;2.01;88.20
18581;DHT22;9420;50.876;7.012;2023-12-07T09:58:28;2.05;87.90
18581;DHT22;9420;50.876;7.012;2023-12-07T10:00:55;2.05;87.43
18581;DHT22;9420;50.876;7.012;2023-12-07T10:03:22;2.17;87.51
18581;DHT22;9420;50.876;7.012;2023-12-07T10:05:53;2.20;87.33
18581;DHT22;9420;50.876;7.012;2023-12-07T10:08:26;2.22;87.86
18581;DHT22;9420;50.876;7.012;2023-12-07T10:11:03;2.27;87.59
18581;DHT22;9420;50.876;7.012;2023-12-07T10:13:30;2.34;87.76
18581;DHT22;9420;50.876;7.012;2023-12-07T10:16:10;2.34;86.90
18581;DHT22;9420;50.876;7.012;2023-12-07T10:18:38;2.44;87.24
18581;DHT22;9420;50.876;7.012;2023-12-07T10:21:06;2.61;87.33
18581;DHT22;9420;50.876;7.012;2023-12-07T10:23:34;2.64;86.25
18581;DHT22;9420;50.876;7.012;2023-12-07T10:26:03;2.74;86.42
18581;DHT22;9420;50.876;7.012;2023-12-07T10:28:34;2.84;86.01
18581;DHT22;9420;50.876;7.012;2023-12-07T10:31:02;2.81;86.23
18581;DHT22;9420;50.876;7.012;2023-12-07T10:33:29;3.01;85.84
18581;DHT22;9420;50.876;7.012;2023-12-07T10:35:55;3.09;85.37
18581;DHT22;9420;50.876;7.012;2023-12-07T10:38:22;3.23;85.39
18581;DHT22;9420;50.876;7.012;2023-12-07T10:40:50;3.34;84.98
18581;DHT22;9420;50.876;7.012;2023-12-07T10:43:24;3.33;84.95
18581;DHT22;9420;50.876;7.012;2023-12-07T10:45:51;3.37;84.69
18581;DHT22;9420;50.876;7.012;2023-12-07T10:48:19;3.36;84.78
18581;DHT22;9420;50.876;7.012;2023-12-07T10:50:46;3.47;84.48
18581;DHT22;9420;50.876;7.012;2023-12-07T10:53:21;3.53;84.22
18581;DHT22;9420;50.876;7.012;2023-12-07T10:55:55;3.54;83.83
18581;DHT22;9420;50.876;7.012;2023-12-07T10:58:24;3.56;83.76
18581;DHT22;9420;50.876;7.012;2023-12-07T11:00:52;3.44;84.05
18581;DHT22;9420;50.876;7.012;2023-12-07T11:03:20;3.50;83.75
18581;DHT22;9420;50.876;7.012;2023-12-07T11:05:47;3.87;83.70
18581;DHT22;9420;50.876;7.012;2023-12-07T11:08:19;3.83;83.41
18581;DHT22;9420;50.876;7.012;2023-12-07T11:10:55;3.95;82.77
18581;DHT22;9420;50.876;7.012;2023-12-07T11:13:29;4.18;82.73
18581;DHT22;9420;50.876;7.012;2023-12-07T11:15:56;4.29;83.07
18581;DHT22;9420;50.876;7.012;2023-12-07T11:18:25;4.28;82.52
18581;DHT22;9420;50.876;7.012;2023-12-07T11:20:53;4.49;82.16
18581;DHT22;9420;50.876;7.012;2023-12-07T11:23:20;4.63;82.51
18581;DHT22;9420;50.876;7.012;2023-12-07T11:25:48;4.80;81.84
18581;DHT22;9420;50.876;7.012;2023-12-07T11:28:15;4.84;81.34
18581;DHT22;9420;50.876;7.012;2023-12-07T11:30:45;5.12;80.99
18581;DHT22;9420;50.876;7.012;2023-12-07T11:33:14;5.42;79.49
18581;DHT22;9420;50.876;7.012;2023-12-07T11:36:03;5.94;78.72
18581;DHT22;9420;50.876;7.012;2023-12-07T11:38:31;5.59;78.21
18581;DHT22;9420;50.876;7.012;2023-12-07T11:40:58;5.56;78.64
18581;DHT22;9420;50.876;7.012;2023-12-07T11:43:40;6.38;77.37
18581;DHT22;9420;50.876;7.012;2023-12-07T11:46:11;6.01;77.10
18581;DHT22;9420;50.876;7.012;2023-12-07T11:48:39;6.29;77.26
18581;DHT22;9420;50.876;7.012;2023-12-07T11:51:07;7.96;73.04
18581;DHT22;9420;50.876;7.012;2023-12-07T11:53:35;7.90;73.36
18581;DHT22;9420;50.876;7.012;2023-12-07T11:56:04;7.15;75.12
18581;DHT22;9420;50.876;7.012;2023-12-07T11:58:33;6.11;77.03
18581;DHT22;9420;50.876;7.012;2023-12-07T12:01:00;5.31;78.37
18581;DHT22;9420;50.876;7.012;2023-12-07T12:03:30;5.36;78.48
18581;DHT22;9420;50.876;7.012;2023-12-07T12:05:57;6.65;76.17
18581;DHT22;9420;50.876;7.012;2023-12-07T12:08:24;7.73;73.10
18581;DHT22;9420;50.876;7.012;2023-12-07T12:10:51;9.91;67.70
18581;DHT22;9420;50.876;7.012;2023-12-07T12:13:19;11.31;63.35
18581;DHT22;9420;50.876;7.012;2023-12-07T12:15:46;10.12;65.81
18581;DHT22;9420;50.876;7.012;2023-12-07T12:18:13;11.59;62.43
18581;DHT22;9420;50.876;7.012;2023-12-07T12:20:44;10.15;65.60
18581;DHT22;9420;50.876;7.012;2023-12-07T12:23:11;11.53;63.24
18581;DHT22;9420;50.876;7.012;2023-12-07T12:25:37;10.35;65.31
18581;DHT22;9420;50.876;7.012;2023-12-07T12:28:05;10.66;63.51
18581;DHT22;9420;50.876;7.012;2023-12-07T12:30:32;10.30;65.64
18581;DHT22;9420;50.876;7.012;2023-12-07T12:32:59;10.09;65.16
18581;DHT22;9420;50.876;7.012;2023-12-07T12:35:26;10.68;64.76
18581;DHT22;9420;50.876;7.012;2023-12-07T12:37:54;11.98;60.53
18581;DHT22;9420;50.876;7.012;2023-12-07T12:40:22;11.35;62.45
18581;DHT22;9420;50.876;7.012;2023-12-07T12:42:50;11.28;62.42
18581;DHT22;9420;50.876;7.012;2023-12-07T12:45:18;10.97;63.53
18581;DHT22;9420;50.876;7.012;2023-12-07T12:47:46;11.08;62.20
18581;DHT22;9420;50.876;7.012;2023-12-07T12:50:32;11.74;60.84
18581;DHT22;9420;50.876;7.012;2023-12-07T12:53:02;11.69;61.08
18581;DHT22;9420;50.876;7.012;2023-12-07T12:55:30;11.77;60.67
18581;DHT22;9420;50.876;7.012;2023-12-07T12:57:57;11.45;61.54
18581;DHT22;9420;50.876;7.012;2023-12-07T13:00:25;10.83;62.60
18581;DHT22;9420;50.876;7.012;2023-12-07T13:02:51;11.66;61.37
18581;DHT22;9420;50.876;7.012;2023-12-07T13:05:18;12.08;58.82
18581;DHT22;9420;50.876;7.012;2023-12-07T13:07:45;10.91;63.70
18581;DHT22;9420;50.876;7.012;2023-12-07T13:10:15;10.23;64.56
18581;DHT22;9420;50.876;7.012;2023-12-07T13:12:42;10.02;65.26
18581;DHT22;9420;50.876;7.012;2023-12-07T13:15:09;11.05;61.37
18581;DHT22;9420;50.876;7.012;2023-12-07T13:17:36;10.22;64.38
18581;DHT22;9420;50.876;7.012;2023-12-07T13:20:04;10.42;63.72
18581;DHT22;9420;50.876;7.012;2023-12-07T13:22:31;10.02;65.69
18581;DHT22;9420;50.876;7.012;2023-12-07T13:24:58;11.62;60.65
18581;DHT22;9420;50.876;7.012;2023-12-07T13:27:26;11.65;60.27
18581;DHT22;9420;50.876;7.012;2023-12-07T13:29:53;11.52;59.75
18581;DHT22;9420;50.876;7.012;2023-12-07T13:32:20;11.67;60.77
18581;DHT22;9420;50.876;7.012;2023-12-07T13:34:47;11.74;58.77
18581;DHT22;9420;50.876;7.012;2023-12-07T13:37:14;11.97;57.71
18581;DHT22;9420;50.876;7.012;2023-12-07T13:39:40;11.38;60.28
18581;DHT22;9420;50.876;7.012;2023-12-07T13:42:08;11.76;59.94
18581;DHT22;9420;50.876;7.012;2023-12-07T13:44:36;12.00;59.46
18581;DHT22;9420;50.876;7.012;2023-12-07T13:47:03;10.95;62.39
18581;DHT22;9420;50.876;7.012;2023-12-07T13:49:30;11.07;61.89
18581;DHT22;9420;50.876;7.012;2023-12-07T13:51:56;10.43;62.99
18581;DHT22;9420;50.876;7.012;2023-12-07T13:54:25;10.13;64.01
18581;DHT22;9420;50.876;7.012;2023-12-07T13:56:52;8.99;67.11
18581;DHT22;9420;50.876;7.012;2023-12-07T13:59:19;8.60;68.75
18581;DHT22;9420;50.876;7.012;2023-12-07T14:01:49;8.52;69.32
18581;DHT22;9420;50.876;7.012;2023-12-07T14:04:19;8.03;70.53
18581;DHT22;9420;50.876;7.012;2023-12-07T14:06:46;7.86;70.69
18581;DHT22;9420;50.876;7.012;2023-12-07T14:09:13;6.83;73.10
18581;DHT22;9420;50.876;7.012;2023-12-07T14:11:40;6.79;73.19
18581;DHT22;9420;50.876;7.012;2023-12-07T14:14:07;6.34;73.47
18581;DHT22;9420;50.876;7.012;2023-12-07T14:16:33;6.01;74.32
18581;DHT22;9420;50.876;7.012;2023-12-07T14:19:01;5.55;75.14
18581;DHT22;9420;50.876;7.012;2023-12-07T14:21:28;5.01;76.81
18581;DHT22;9420;50.876;7.012;2023-12-07T14:23:56;5.07;76.66
18581;DHT22;9420;50.876;7.012;2023-12-07T14:26:23;4.71;77.88
18581;DHT22;9420;50.876;7.012;2023-12-07T14:28:50;4.52;78.57
18581;DHT22;9420;50.876;7.012;2023-12-07T14:31:16;4.69;77.92
18581;DHT22;9420;50.876;7.012;2023-12-07T14:33:44;4.29;78.89
18581;DHT22;9420;50.876;7.012;2023-12-07T14:36:12;4.12;80.00
18581;DHT22;9420;50.876;7.012;2023-12-07T14:38:38;4.23;78.92
18581;DHT22;9420;50.876;7.012;2023-12-07T14:41:06;4.41;78.39
18581;DHT22;9420;50.876;7.012;2023-12-07T14:43:33;4.33;78.76
18581;DHT22;9420;50.876;7.012;2023-12-07T14:46:00;4.26;78.89
18581;DHT22;9420;50.876;7.012;2023-12-07T14:48:27;4.16;78.96
18581;DHT22;9420;50.876;7.012;2023-12-07T14:50:54;4.19;78.77
18581;DHT22;9420;50.876;7.012;2023-12-07T14:53:22;3.83;79.82
18581;DHT22;9420;50.876;7.012;2023-12-07T14:55:50;3.77;80.45
18581;DHT22;9420;50.876;7.012;2023-12-07T14:58:17;3.81;80.03
18581;DHT22;9420;50.876;7.012;2023-12-07T15:00:44;3.60;81.21
18581;DHT22;9420;50.876;7.012;2023-12-07T15:03:11;3.52;81.15
18581;DHT22;9420;50.876;7.012;2023-12-07T15:05:38;3.49;81.37
18581;DHT22;9420;50.876;7.012;2023-12-07T15:08:05;3.46;81.54
18581;DHT22;9420;50.876;7.012;2023-12-07T15:10:32;3.42;81.85
18581;DHT22;9420;50.876;7.012;2023-12-07T15:12:59;3.27;82.11
18581;DHT22;9420;50.876;7.012;2023-12-07T15:15:27;3.33;82.01
18581;DHT22;9420;50.876;7.012;2023-12-07T15:17:53;3.11;82.53
18581;DHT22;9420;50.876;7.012;2023-12-07T15:20:20;3.05;82.84
18581;DHT22;9420;50.876;7.012;2023-12-07T15:22:47;2.96;83.20
18581;DHT22;9420;50.876;7.012;2023-12-07T15:25:14;3.01;83.05
18581;DHT22;9420;50.876;7.012;2023-12-07T15:27:42;3.02;83.32
18581;DHT22;9420;50.876;7.012;2023-12-07T15:30:12;2.99;83.13
18581;DHT22;9420;50.876;7.012;2023-12-07T15:32:39;2.96;83.17
18581;DHT22;9420;50.876;7.012;2023-12-07T15:35:06;2.98;83.24
18581;DHT22;9420;50.876;7.012;2023-12-07T15:37:33;2.80;83.81
18581;DHT22;9420;50.876;7.012;2023-12-07T15:39:59;2.84;83.60
18581;DHT22;9420;50.876;7.012;2023-12-07T15:42:26;2.58;84.49
18581;DHT22;9420;50.876;7.012;2023-12-07T15:44:54;2.65;84.13
18581;DHT22;9420;50.876;7.012;2023-12-07T15:47:20;2.60;84.15
18581;DHT22;9420;50.876;7.012;2023-12-07T15:49:47;2.56;84.44
18581;DHT22;9420;50.876;7.012;2023-12-07T15:52:14;2.57;84.41
18581;DHT22;9420;50.876;7.012;2023-12-07T15:54:40;2.57;84.45
18581;DHT22;9420;50.876;7.012;2023-12-07T15:57:09;2.58;84.12
18581;DHT22;9420;50.876;7.012;2023-12-07T15:59:36;2.50;84.16
18581;DHT22;9420;50.876;7.012;2023-12-07T16:02:04;2.41;84.39
18581;DHT22;9420;50.876;7.012;2023-12-07T16:04:31;2.44;84.63